Time;durP1;ratioP1;P1;durP2;ratioP2;P2;SDS_P1;SDS_P2;PMS_P1;PMS_P2;Temp;Humidity;BMP_temperature;BMP_pressure;BME280_temperature;BME280_humidity;BME280_pressure;Samples;Min_cycle;Max_cycle;Signal;HPM_P1;HPM_P2
2022/06/29 00:00:29;;;;;;;1.77;0.90;;;21.00;68.60;;;;;;5014405;28;20596;-78
2022/06/29 00:02:55;;;;;;;2.30;1.07;;;21.00;69.20;;;;;;5015534;28;20529;-78
2022/06/29 00:05:23;;;;;;;1.83;1.00;;;21.00;69.70;;;;;;5015373;28;20569;-77
2022/06/29 00:07:50;;;;;;;2.53;1.20;;;20.90;70.30;;;;;;5014085;28;20585;-78
2022/06/29 00:10:18;;;;;;;1.70;0.90;;;20.90;71.00;;;;;;5013683;28;20636;-78
2022/06/29 00:12:46;;;;;;;2.17;1.00;;;20.80;71.50;;;;;;4997402;28;20620;-78
2022/06/29 00:15:13;;;;;;;2.60;1.20;;;20.80;71.90;;;;;;5014230;28;20627;-78
2022/06/29 00:17:38;;;;;;;1.90;1.10;;;20.70;72.40;;;;;;5015394;28;21121;-78
2022/06/29 00:20:07;;;;;;;2.13;1.07;;;20.70;72.90;;;;;;5013786;28;20655;-78
2022/06/29 00:22:33;;;;;;;3.60;1.10;;;20.70;73.70;;;;;;5016834;28;20228;-78
2022/06/29 00:24:59;;;;;;;2.63;1.00;;;20.60;74.30;;;;;;5013893;28;20597;-78
2022/06/29 00:27:25;;;;;;;2.30;1.20;;;20.60;74.90;;;;;;5025605;28;20611;-77
2022/06/29 00:29:51;;;;;;;2.20;1.20;;;20.60;75.60;;;;;;5010438;28;20608;-77
2022/06/29 00:32:17;;;;;;;2.00;1.10;;;20.60;76.20;;;;;;5013128;28;20577;-77
2022/06/29 00:34:43;;;;;;;2.13;1.00;;;20.60;76.90;;;;;;5014987;28;20541;-77
2022/06/29 00:37:09;;;;;;;3.83;1.40;;;20.60;77.70;;;;;;5014484;28;20906;-77
2022/06/29 00:39:35;;;;;;;2.90;1.47;;;20.50;78.20;;;;;;5014627;28;20671;-77
2022/06/29 00:42:01;;;;;;;2.60;1.37;;;20.50;78.90;;;;;;5012992;28;20628;-77
2022/06/29 00:44:27;;;;;;;2.37;1.23;;;20.50;79.70;;;;;;5013422;28;20585;-78
2022/06/29 00:46:58;;;;;;;1.90;1.10;;;20.50;80.40;;;;;;5014453;28;20573;-77
2022/06/29 00:49:26;;;;;;;2.47;1.60;;;20.40;81.00;;;;;;5014502;28;20174;-77
2022/06/29 00:52:06;;;;;;;2.87;1.60;;;20.50;81.80;;;;;;5013529;28;20585;-78
2022/06/29 00:54:52;;;;;;;2.03;1.30;;;20.40;83.60;;;;;;5013336;28;20576;-78
2022/06/29 00:57:20;;;;;;;2.37;1.10;;;20.40;83.50;;;;;;5014963;28;20569;-78
2022/06/29 00:59:49;;;;;;;2.30;1.20;;;20.40;83.80;;;;;;5018571;28;20643;-78
2022/06/29 01:02:21;;;;;;;4.23;1.27;;;20.40;84.40;;;;;;5011953;28;20669;-78
2022/06/29 01:04:47;;;;;;;2.93;1.10;;;20.40;85.20;;;;;;5014102;28;20600;-78
2022/06/29 01:07:15;;;;;;;2.00;1.23;;;20.40;85.30;;;;;;5012822;28;20577;-78
2022/06/29 01:09:43;;;;;;;2.00;1.10;;;20.40;86.10;;;;;;5014085;28;20652;-78
2022/06/29 01:12:09;;;;;;;2.00;1.30;;;20.40;86.70;;;;;;5013879;28;20651;-78
2022/06/29 01:14:35;;;;;;;2.80;1.10;;;20.40;87.40;;;;;;5014222;28;20566;-78
2022/06/29 01:17:01;;;;;;;2.50;1.10;;;20.30;88.10;;;;;;5014263;28;20577;-78
2022/06/29 01:19:28;;;;;;;4.33;1.20;;;20.30;88.50;;;;;;5013989;28;20988;-78
2022/06/29 01:21:55;;;;;;;2.30;1.00;;;20.30;89.00;;;;;;5013429;28;20568;-78
2022/06/29 01:24:22;;;;;;;1.93;1.30;;;20.30;89.60;;;;;;5014239;28;20924;-78
2022/06/29 01:26:49;;;;;;;2.73;1.53;;;20.20;90.00;;;;;;5013997;28;20573;-77
2022/06/29 01:29:16;;;;;;;2.37;1.30;;;20.20;90.20;;;;;;5012671;28;20584;-77
2022/06/29 01:31:42;;;;;;;3.13;1.23;;;20.10;90.40;;;;;;5011702;28;20934;-78
2022/06/29 01:34:08;;;;;;;2.27;1.50;;;20.10;90.70;;;;;;5012919;28;20631;-77
2022/06/29 01:36:34;;;;;;;2.70;1.63;;;20.00;90.80;;;;;;5014651;28;20577;-77
2022/06/29 01:39:00;;;;;;;2.63;1.13;;;20.00;91.10;;;;;;5013811;28;20205;-77
2022/06/29 01:41:26;;;;;;;2.77;1.30;;;20.00;91.40;;;;;;5011511;28;20720;-78
2022/06/29 01:43:52;;;;;;;3.67;1.50;;;19.90;91.60;;;;;;5012243;28;20661;-78
2022/06/29 01:46:18;;;;;;;2.90;1.23;;;19.90;91.80;;;;;;5013687;28;20498;-78
2022/06/29 01:48:44;;;;;;;8.90;1.30;;;19.90;92.00;;;;;;5013413;28;20225;-78
2022/06/29 01:51:09;;;;;;;3.03;1.20;;;19.80;92.30;;;;;;5010981;28;20613;-78
2022/06/29 01:53:35;;;;;;;1.80;1.07;;;19.80;92.60;;;;;;5013342;28;20175;-77
2022/06/29 01:56:01;;;;;;;1.90;1.20;;;19.80;92.80;;;;;;5028524;28;20244;-77
2022/06/29 01:58:27;;;;;;;1.77;1.20;;;19.70;93.00;;;;;;5013105;28;20301;-77
2022/06/29 02:00:52;;;;;;;2.73;1.13;;;19.70;93.30;;;;;;5012253;28;20555;-77
2022/06/29 02:03:18;;;;;;;1.70;1.03;;;19.70;93.70;;;;;;5012856;28;20504;-77
2022/06/29 02:05:44;;;;;;;2.27;1.03;;;19.60;93.70;;;;;;5011982;28;20630;-77
2022/06/29 02:08:10;;;;;;;2.23;1.27;;;19.60;94.00;;;;;;5013768;28;20182;-77
2022/06/29 02:10:36;;;;;;;4.00;1.60;;;19.60;94.30;;;;;;5014799;28;20728;-78
2022/06/29 02:13:02;;;;;;;2.00;1.00;;;19.50;94.60;;;;;;5018641;28;20577;-77
2022/06/29 02:15:28;;;;;;;2.20;1.40;;;19.50;94.80;;;;;;5012452;28;20574;-77
2022/06/29 02:17:54;;;;;;;1.70;1.03;;;19.50;95.10;;;;;;4995037;28;20616;-77
2022/06/29 02:20:20;;;;;;;2.43;1.20;;;19.50;95.70;;;;;;5012656;28;20268;-77
2022/06/29 02:22:46;;;;;;;1.70;1.20;;;19.50;95.50;;;;;;5011162;28;20236;-77
2022/06/29 02:25:11;;;;;;;2.33;1.20;;;19.60;95.90;;;;;;5012821;28;20171;-77
2022/06/29 02:27:44;;;;;;;1.80;1.20;;;19.60;96.00;;;;;;5012780;28;20193;-78
2022/06/29 02:30:12;;;;;;;2.10;1.20;;;19.50;96.40;;;;;;5012305;28;20267;-77
2022/06/29 02:35:22;;;;;;;1.73;1.10;;;19.50;96.60;;;;;;5011417;28;20933;-77
2022/06/29 02:37:48;;;;;;;2.60;1.10;;;19.50;96.80;;;;;;5012475;28;20662;-77
2022/06/29 02:40:14;;;;;;;2.17;1.10;;;19.50;96.90;;;;;;5011229;28;20238;-77
2022/06/29 02:42:39;;;;;;;2.80;1.70;;;19.50;97.20;;;;;;5012152;28;20170;-77
2022/06/29 02:45:06;;;;;;;3.93;1.50;;;19.50;97.50;;;;;;5012524;28;20680;-77
2022/06/29 02:47:31;;;;;;;2.10;1.30;;;19.50;97.70;;;;;;5027425;28;20257;-77
2022/06/29 02:49:57;;;;;;;2.30;1.40;;;19.50;97.90;;;;;;5016172;28;21172;-77
2022/06/29 02:54:57;;;;;;;4.47;1.20;;;19.40;98.60;;;;;;4982369;28;20211;-74
2022/06/29 02:57:24;;;;;;;2.73;1.40;;;19.40;98.50;;;;;;5003902;28;20590;-74
2022/06/29 02:59:50;;;;;;;3.10;2.10;;;19.40;98.70;;;;;;4965591;28;21064;-74
2022/06/29 03:02:16;;;;;;;2.90;1.70;;;19.40;98.90;;;;;;4983581;28;20728;-74
2022/06/29 03:04:42;;;;;;;3.60;1.53;;;19.40;99.20;;;;;;5020291;28;20658;-74
2022/06/29 03:07:07;;;;;;;2.03;1.33;;;19.40;99.30;;;;;;5003060;28;20265;-74
2022/06/29 03:09:33;;;;;;;2.80;1.73;;;19.30;99.50;;;;;;5007417;28;20178;-74
2022/06/29 03:11:59;;;;;;;3.60;1.80;;;19.30;99.90;;;;;;5000954;28;20171;-74
2022/06/29 03:14:24;;;;;;;4.77;1.73;;;19.30;99.90;;;;;;5002396;28;20609;-75
2022/06/29 03:16:50;;;;;;;1.87;1.30;;;19.30;99.90;;;;;;5008735;28;20179;-74
2022/06/29 03:19:16;;;;;;;2.03;1.30;;;19.30;99.90;;;;;;5014681;28;20226;-74
2022/06/29 03:21:42;;;;;;;3.10;1.50;;;19.30;99.90;;;;;;5013299;28;20178;-74
2022/06/29 03:24:07;;;;;;;2.17;1.30;;;19.30;99.90;;;;;;4994177;28;20197;-75
2022/06/29 03:26:33;;;;;;;2.10;1.40;;;19.20;99.90;;;;;;5011399;28;20257;-74
2022/06/29 03:28:59;;;;;;;3.00;1.67;;;19.20;99.90;;;;;;5010396;28;20593;-75
2022/06/29 03:31:25;;;;;;;3.00;1.80;;;19.20;99.90;;;;;;5010866;28;20170;-75
2022/06/29 03:33:51;;;;;;;1.60;1.30;;;19.20;99.90;;;;;;5011681;28;20194;-75
2022/06/29 03:36:16;;;;;;;1.90;1.30;;;19.10;99.90;;;;;;5026994;28;20166;-75
2022/06/29 03:38:42;;;;;;;1.97;1.40;;;19.10;99.90;;;;;;4994020;28;20621;-75
2022/06/29 03:41:08;;;;;;;1.70;1.20;;;19.10;99.90;;;;;;5009549;28;20202;-75
2022/06/29 03:43:34;;;;;;;2.40;1.43;;;19.10;99.90;;;;;;5011688;28;20197;-75
2022/06/29 03:46:00;;;;;;;4.77;1.20;;;19.10;99.90;;;;;;4993765;28;20574;-75
2022/06/29 03:48:26;;;;;;;3.53;1.70;;;19.10;99.90;;;;;;5011731;28;20944;-75
2022/06/29 03:50:52;;;;;;;3.60;1.33;;;19.20;99.90;;;;;;5009471;28;20668;-74
2022/06/29 03:53:18;;;;;;;2.53;1.53;;;19.20;99.90;;;;;;5011322;28;20206;-74
2022/06/29 03:55:44;;;;;;;2.33;1.20;;;19.20;99.90;;;;;;5012252;28;20166;-74
2022/06/29 03:58:09;;;;;;;2.70;1.80;;;19.20;99.90;;;;;;5016330;28;20674;-74
2022/06/29 04:00:36;;;;;;;2.17;1.40;;;19.20;99.90;;;;;;5025744;28;20162;-74
2022/06/29 04:03:02;;;;;;;1.90;1.30;;;19.30;99.90;;;;;;5011221;28;20197;-74
2022/06/29 04:05:28;;;;;;;2.37;1.60;;;19.30;99.90;;;;;;5011399;28;20565;-75
2022/06/29 04:07:53;;;;;;;3.57;1.40;;;19.30;99.90;;;;;;5026607;28;20584;-74
2022/06/29 04:10:19;;;;;;;2.83;1.77;;;19.30;99.90;;;;;;5011207;28;20573;-75
2022/06/29 04:12:45;;;;;;;3.20;1.87;;;19.30;99.90;;;;;;5010769;28;20273;-75
2022/06/29 04:15:11;;;;;;;2.77;1.23;;;19.30;99.90;;;;;;5026472;28;20708;-76
2022/06/29 04:17:36;;;;;;;2.00;1.40;;;19.40;99.90;;;;;;5026686;28;20177;-75
2022/06/29 04:20:03;;;;;;;1.90;1.33;;;19.40;99.90;;;;;;4993371;28;20177;-75
2022/06/29 04:22:29;;;;;;;2.20;1.70;;;19.50;99.90;;;;;;4982041;28;20173;-75
2022/06/29 04:24:55;;;;;;;2.77;1.50;;;19.50;99.90;;;;;;4999343;28;20584;-75
2022/06/29 04:27:21;;;;;;;1.80;1.40;;;19.50;99.90;;;;;;5010699;28;20565;-75
2022/06/29 04:29:47;;;;;;;2.77;1.70;;;19.60;99.90;;;;;;5010491;28;20539;-75
2022/06/29 04:32:12;;;;;;;2.60;1.90;;;19.60;99.90;;;;;;5009635;28;20573;-74
2022/06/29 04:34:38;;;;;;;2.60;1.60;;;19.70;99.90;;;;;;5014367;28;20195;-74
2022/06/29 04:37:04;;;;;;;2.23;1.50;;;19.70;99.90;;;;;;5011294;28;20185;-75
2022/06/29 04:39:33;;;;;;;2.60;1.40;;;19.80;99.90;;;;;;5014309;28;20716;-74
2022/06/29 04:41:58;;;;;;;3.40;1.10;;;19.80;99.90;;;;;;5029138;28;20530;-75
2022/06/29 04:44:25;;;;;;;2.00;1.30;;;19.90;99.90;;;;;;5029500;28;20596;-75
2022/06/29 04:46:54;;;;;;;4.67;1.37;;;19.90;99.90;;;;;;5014460;28;20217;-75
2022/06/29 04:49:20;;;;;;;2.33;1.43;;;20.00;99.90;;;;;;5014585;28;20581;-75
2022/06/29 04:51:46;;;;;;;3.87;1.70;;;20.00;99.90;;;;;;5013652;28;20938;-76
2022/06/29 04:54:12;;;;;;;2.30;1.27;;;20.20;99.90;;;;;;5029317;28;20628;-74
2022/06/29 04:56:37;;;;;;;2.90;1.73;;;20.20;99.90;;;;;;5029544;28;20589;-74
2022/06/29 04:59:03;;;;;;;2.93;1.53;;;20.20;99.90;;;;;;5014180;28;20212;-74
2022/06/29 05:01:30;;;;;;;2.67;1.60;;;20.30;99.90;;;;;;5028813;28;20190;-74
2022/06/29 05:03:59;;;;;;;2.70;1.80;;;20.40;99.90;;;;;;5014318;28;20677;-75
2022/06/29 05:06:25;;;;;;;4.23;1.50;;;20.50;99.90;;;;;;5029455;28;20573;-75
2022/06/29 05:08:51;;;;;;;2.80;1.50;;;20.60;99.90;;;;;;5014263;28;20923;-75
2022/06/29 05:11:18;;;;;;;2.10;1.50;;;20.70;99.90;;;;;;5014823;28;20585;-74
2022/06/29 05:13:47;;;;;;;2.50;1.83;;;20.70;99.90;;;;;;5013827;28;20201;-73
2022/06/29 05:16:13;;;;;;;3.27;2.00;;;20.80;99.90;;;;;;5014006;28;20577;-74
2022/06/29 05:18:39;;;;;;;2.10;1.37;;;20.90;99.90;;;;;;5014049;28;20667;-74
2022/06/29 05:21:06;;;;;;;2.03;1.27;;;21.00;99.90;;;;;;5013219;28;20582;-74
2022/06/29 05:23:32;;;;;;;6.53;1.63;;;21.00;99.90;;;;;;5029216;28;21012;-75
2022/06/29 05:25:58;;;;;;;3.47;1.73;;;21.10;99.90;;;;;;5013769;28;20660;-75
2022/06/29 05:28:24;;;;;;;4.60;1.53;;;21.20;99.90;;;;;;5013790;28;20577;-75
2022/06/29 05:30:51;;;;;;;1.90;1.20;;;21.30;99.90;;;;;;5012812;28;20577;-75
2022/06/29 05:33:17;;;;;;;3.03;1.80;;;21.30;99.90;;;;;;5029077;28;20612;-75
2022/06/29 05:35:43;;;;;;;3.13;1.57;;;21.40;99.90;;;;;;5013809;28;20616;-75
2022/06/29 05:38:09;;;;;;;3.40;1.60;;;21.50;99.90;;;;;;5013617;28;20629;-75
2022/06/29 05:40:35;;;;;;;2.53;1.20;;;21.50;99.90;;;;;;5012762;28;20206;-75
2022/06/29 05:43:01;;;;;;;3.30;1.53;;;21.60;99.90;;;;;;4995754;28;20190;-75
2022/06/29 05:45:27;;;;;;;2.73;1.20;;;21.70;99.90;;;;;;5012135;28;20584;-75
2022/06/29 05:47:53;;;;;;;3.10;1.20;;;21.80;99.90;;;;;;5014882;28;20257;-75
2022/06/29 05:50:22;;;;;;;1.90;1.50;;;21.90;99.90;;;;;;5012876;28;20581;-76
2022/06/29 05:52:47;;;;;;;2.30;1.10;;;21.90;99.90;;;;;;5012811;28;20612;-78
2022/06/29 05:55:13;;;;;;;2.17;1.47;;;22.00;99.90;;;;;;5013255;28;20929;-78
2022/06/29 05:57:39;;;;;;;4.37;1.40;;;22.00;99.90;;;;;;4995349;28;20588;-77
2022/06/29 06:00:06;;;;;;;2.67;1.80;;;22.10;99.90;;;;;;5028333;28;20593;-78
2022/06/29 06:02:44;;;;;;;2.60;1.50;;;22.10;99.90;;;;;;4992864;28;20629;-78
2022/06/29 06:05:13;;;;;;;2.60;1.27;;;22.20;99.90;;;;;;4992523;28;20598;-76
2022/06/29 06:07:39;;;;;;;3.00;1.60;;;22.20;99.90;;;;;;4992800;28;21241;-77
2022/06/29 06:10:08;;;;;;;3.57;1.00;;;22.30;99.90;;;;;;4991410;28;20594;-76
2022/06/29 06:12:35;;;;;;;2.93;1.23;;;22.30;99.90;;;;;;5024184;28;20649;-76
2022/06/29 06:15:01;;;;;;;3.63;1.83;;;22.30;99.90;;;;;;5001041;28;20670;-76
2022/06/29 06:17:30;;;;;;;3.73;1.23;;;22.30;99.90;;;;;;4991652;28;20652;-77
2022/06/29 06:19:58;;;;;;;2.27;1.20;;;22.20;99.90;;;;;;4992430;28;20641;-79
2022/06/29 06:22:24;;;;;;;3.10;1.33;;;22.30;99.90;;;;;;4991194;28;20661;-77
2022/06/29 06:24:50;;;;;;;4.80;1.80;;;22.20;99.90;;;;;;5007475;28;20628;-76
2022/06/29 06:27:16;;;;;;;5.10;1.30;;;22.30;99.90;;;;;;4991710;28;20574;-76
2022/06/29 06:29:43;;;;;;;3.43;1.50;;;22.30;99.90;;;;;;4992450;28;20174;-76
2022/06/29 06:32:09;;;;;;;4.37;2.30;;;22.30;99.90;;;;;;4993750;28;20900;-76
2022/06/29 06:34:35;;;;;;;1.90;1.20;;;22.40;99.90;;;;;;4999270;28;20633;-77
2022/06/29 06:37:01;;;;;;;2.63;1.30;;;22.40;99.90;;;;;;4992650;28;20654;-77
2022/06/29 06:39:27;;;;;;;2.40;1.20;;;22.40;99.90;;;;;;4999645;28;20237;-77
2022/06/29 06:41:53;;;;;;;2.47;1.17;;;22.50;99.90;;;;;;4991449;28;20573;-76
2022/06/29 06:44:19;;;;;;;4.47;1.50;;;22.50;99.90;;;;;;5007414;28;21233;-76
2022/06/29 06:46:48;;;;;;;3.53;1.30;;;22.50;99.90;;;;;;4974913;28;20176;-76
2022/06/29 06:49:25;;;;;;;1.90;1.30;;;22.60;99.90;;;;;;4992573;28;20566;-76
2022/06/29 06:51:51;;;;;;;4.60;1.43;;;22.60;99.90;;;;;;4991632;28;20578;-76
2022/06/29 06:54:17;;;;;;;1.73;1.20;;;22.60;99.90;;;;;;4991948;28;20617;-76
2022/06/29 06:56:43;;;;;;;2.07;1.40;;;22.70;99.90;;;;;;4992463;28;20171;-76
2022/06/29 06:59:09;;;;;;;2.77;1.50;;;22.70;99.90;;;;;;5007515;28;20614;-75
2022/06/29 07:01:35;;;;;;;2.20;1.37;;;22.80;99.90;;;;;;4996383;28;20694;-76
2022/06/29 07:04:04;;;;;;;2.90;1.30;;;22.90;99.90;;;;;;4993403;28;20187;-76
2022/06/29 07:06:31;;;;;;;4.33;2.13;;;22.80;99.90;;;;;;4990911;28;20984;-76
2022/06/29 07:08:57;;;;;;;2.07;1.37;;;22.80;99.90;;;;;;4992269;28;20558;-76
2022/06/29 07:11:23;;;;;;;4.10;1.80;;;22.80;99.90;;;;;;4993667;28;20602;-76
2022/06/29 07:13:49;;;;;;;2.23;1.33;;;22.90;99.90;;;;;;4991984;28;20602;-75
2022/06/29 07:16:15;;;;;;;2.20;1.67;;;23.00;99.90;;;;;;4992031;28;20190;-77
2022/06/29 07:18:41;;;;;;;1.90;1.20;;;23.00;99.80;;;;;;5023584;28;20621;-76
2022/06/29 07:21:07;;;;;;;2.47;1.30;;;23.10;99.50;;;;;;4991525;28;20981;-75
2022/06/29 07:23:32;;;;;;;2.07;1.30;;;23.20;99.50;;;;;;4991722;28;20603;-76
2022/06/29 07:25:58;;;;;;;3.10;1.10;;;23.20;99.20;;;;;;4991710;28;20171;-76
2022/06/29 07:28:24;;;;;;;2.63;1.60;;;23.30;99.10;;;;;;4991703;28;20180;-76
2022/06/29 07:30:51;;;;;;;1.90;1.40;;;23.40;99.00;;;;;;4990949;28;20177;-76
2022/06/29 07:33:17;;;;;;;2.03;1.53;;;23.50;98.80;;;;;;5023211;28;20694;-76
2022/06/29 07:35:43;;;;;;;3.30;1.20;;;23.60;98.80;;;;;;4991873;28;21200;-73
2022/06/29 07:38:10;;;;;;;3.70;2.00;;;23.60;98.60;;;;;;4995500;28;20636;-75
2022/06/29 07:40:36;;;;;;;3.03;2.23;;;23.70;98.30;;;;;;4990873;28;20179;-74
2022/06/29 07:43:01;;;;;;;3.40;1.97;;;23.70;98.00;;;;;;4991551;28;20688;-75
2022/06/29 07:45:27;;;;;;;4.23;2.03;;;23.70;98.10;;;;;;4990709;28;20177;-76
2022/06/29 07:47:53;;;;;;;2.93;2.37;;;23.70;97.70;;;;;;4991473;28;20218;-76
2022/06/29 07:50:19;;;;;;;5.00;2.10;;;23.60;97.20;;;;;;5023488;28;20190;-76
2022/06/29 07:52:45;;;;;;;3.20;2.10;;;23.60;97.00;;;;;;5022843;28;20183;-76
2022/06/29 07:55:12;;;;;;;2.33;2.10;;;23.50;96.80;;;;;;4990279;28;20660;-77
2022/06/29 07:57:37;;;;;;;1.93;1.60;;;23.50;96.80;;;;;;4992023;28;20606;-76
2022/06/29 08:00:05;;;;;;;2.00;1.20;;;23.50;96.80;;;;;;4991200;28;21224;-76
2022/06/29 08:02:38;;;;;;;2.80;1.50;;;23.60;96.60;;;;;;4991315;28;20202;-75
2022/06/29 08:05:04;;;;;;;4.33;2.00;;;23.60;96.70;;;;;;4991726;28;20566;-76
2022/06/29 08:07:30;;;;;;;2.93;2.50;;;23.60;96.40;;;;;;4991301;28;20604;-76
2022/06/29 08:09:56;;;;;;;3.33;2.20;;;23.50;96.10;;;;;;4991207;28;20625;-76
2022/06/29 08:12:21;;;;;;;3.37;2.50;;;23.50;96.20;;;;;;4991654;28;20178;-76
2022/06/29 08:14:47;;;;;;;3.63;1.90;;;23.50;96.20;;;;;;4999657;28;20741;-76
2022/06/29 08:17:13;;;;;;;2.47;2.07;;;23.50;96.00;;;;;;4995315;28;20171;-76
2022/06/29 08:19:39;;;;;;;3.57;2.53;;;23.50;96.00;;;;;;5010144;28;20608;-76
2022/06/29 08:22:04;;;;;;;2.70;1.57;;;23.50;96.00;;;;;;5026216;28;20175;-76
2022/06/29 08:24:30;;;;;;;3.57;1.37;;;23.50;96.10;;;;;;4993598;28;20194;-75
2022/06/29 08:26:56;;;;;;;2.20;1.60;;;23.60;96.20;;;;;;5009098;28;20638;-75
2022/06/29 08:29:22;;;;;;;2.60;1.53;;;23.60;96.10;;;;;;5022050;28;20166;-75
2022/06/29 08:31:48;;;;;;;4.20;1.43;;;23.70;95.70;;;;;;5003786;28;20182;-75
2022/06/29 08:34:16;;;;;;;2.83;1.80;;;23.70;95.50;;;;;;5005789;28;20649;-75
2022/06/29 08:36:42;;;;;;;4.23;3.83;;;23.80;95.30;;;;;;5004868;28;20175;-75
2022/06/29 08:39:07;;;;;;;4.60;4.10;;;23.80;94.90;;;;;;4998427;28;20621;-75
2022/06/29 08:41:34;;;;;;;4.80;4.10;;;23.70;94.80;;;;;;5013509;28;20267;-76
2022/06/29 08:44:04;;;;;;;4.53;2.77;;;23.70;94.70;;;;;;5000494;28;20187;-76
2022/06/29 08:46:29;;;;;;;3.50;2.70;;;23.70;94.40;;;;;;4997354;28;21137;-76
2022/06/29 08:48:55;;;;;;;3.17;2.20;;;23.70;94.50;;;;;;4996105;28;20621;-76
2022/06/29 08:51:24;;;;;;;5.63;1.93;;;23.80;94.60;;;;;;4995504;28;20233;-76
2022/06/29 08:53:51;;;;;;;3.73;1.90;;;23.80;94.40;;;;;;4995557;28;20987;-75
2022/06/29 08:56:18;;;;;;;3.40;2.10;;;23.80;94.20;;;;;;4995123;28;20590;-76
2022/06/29 08:58:45;;;;;;;2.93;1.87;;;23.80;94.00;;;;;;5010492;28;20668;-75
2022/06/29 09:01:12;;;;;;;3.20;2.67;;;23.80;94.00;;;;;;4976632;28;20571;-76
2022/06/29 09:03:39;;;;;;;4.30;3.27;;;23.90;94.10;;;;;;4994240;28;20606;-75
2022/06/29 09:06:06;;;;;;;3.27;2.80;;;24.00;93.90;;;;;;4993724;28;20579;-75
2022/06/29 09:08:42;;;;;;;4.10;3.70;;;24.00;93.90;;;;;;5017070;28;20621;-75
2022/06/29 09:11:25;;;;;;;7.33;5.00;;;24.00;93.80;;;;;;5016402;28;21315;-75
2022/06/29 09:14:11;;;;;;;9.10;4.97;;;24.10;93.80;;;;;;4993864;28;20676;-75
2022/06/29 09:16:53;;;;;;;4.00;3.60;;;24.20;93.90;;;;;;4992589;28;20585;-74
2022/06/29 09:19:43;;;;;;;5.33;4.03;;;24.20;94.00;;;;;;5008755;28;20703;-74
2022/06/29 09:22:10;;;;;;;4.83;4.17;;;24.40;94.00;;;;;;4985891;28;20598;-76
2022/06/29 09:24:36;;;;;;;4.97;4.33;;;24.60;94.10;;;;;;4992114;28;20644;-76
2022/06/29 09:27:05;;;;;;;4.33;3.37;;;24.80;93.80;;;;;;4999852;28;20692;-76
2022/06/29 09:29:32;;;;;;;3.00;2.57;;;24.90;93.60;;;;;;4995524;28;20187;-75
2022/06/29 09:32:04;;;;;;;2.77;2.13;;;25.00;93.50;;;;;;4992755;28;21003;-74
2022/06/29 09:34:30;;;;;;;2.80;2.13;;;25.20;93.30;;;;;;4992599;28;20967;-75
2022/06/29 09:36:58;;;;;;;4.05;2.95;;;25.30;93.10;;;;;;4993484;28;20706;-75
2022/06/29 09:39:38;;;;;;;3.07;2.30;;;25.40;91.80;;;;;;4995232;28;20655;-74
2022/06/29 09:42:07;;;;;;;2.90;2.13;;;25.50;92.40;;;;;;5008912;28;21150;-74
2022/06/29 09:44:34;;;;;;;3.50;1.97;;;25.70;92.80;;;;;;5008454;28;20708;-74
2022/06/29 09:47:04;;;;;;;3.10;1.80;;;25.90;92.70;;;;;;4976440;28;20566;-74
2022/06/29 09:49:32;;;;;;;5.33;2.00;;;26.00;92.50;;;;;;5020916;28;20590;-75
2022/06/29 09:51:59;;;;;;;2.97;1.70;;;26.30;92.60;;;;;;4989406;28;21206;-73
2022/06/29 09:54:39;;;;;;;3.20;2.10;;;26.60;92.80;;;;;;5024802;28;20618;-73
2022/06/29 09:57:07;;;;;;;3.00;2.03;;;26.90;92.30;;;;;;4991743;28;20632;-73
2022/06/29 10:02:39;;;;;;;4.70;1.57;;;27.90;91.10;;;;;;4984049;28;20598;-74
2022/06/29 10:05:06;;;;;;;2.70;2.07;;;28.40;91.70;;;;;;5019795;28;20994;-74
2022/06/29 10:07:34;;;;;;;2.67;1.67;;;28.90;90.60;;;;;;4992533;28;20606;-74
2022/06/29 10:10:02;;;;;;;3.20;2.00;;;29.30;89.20;;;;;;4993130;28;20736;-75
2022/06/29 10:15:32;;;;;;;2.77;2.10;;;29.80;85.50;;;;;;5002141;28;20590;-74
2022/06/29 10:18:12;;;;;;;2.57;1.80;;;30.20;84.30;;;;;;4981373;28;20695;-74
2022/06/29 10:20:48;;;;;;;2.57;1.83;;;30.60;83.10;;;;;;4998818;28;20597;-74
2022/06/29 10:23:43;;;;;;;3.70;1.53;;;31.00;83.20;;;;;;5007490;28;20674;-73
2022/06/29 10:26:27;;;;;;;3.90;2.03;;;31.60;82.60;;;;;;4994707;28;20581;-73
2022/06/29 10:29:16;;;;;;;3.77;2.07;;;32.00;80.60;;;;;;5027721;28;20989;-74
2022/06/29 10:31:50;;;;;;;2.77;1.97;;;32.20;76.40;;;;;;4984427;28;20672;-75
2022/06/29 10:34:31;;;;;;;2.80;1.93;;;32.20;74.80;;;;;;4991818;28;21180;-74
2022/06/29 10:37:05;;;;;;;2.43;1.37;;;32.00;66.90;;;;;;4992574;28;20661;-75
2022/06/29 10:39:43;;;;;;;5.10;2.30;;;31.60;66.80;;;;;;5007562;28;20660;-75
2022/06/29 10:45:17;;;;;;;2.70;1.70;;;30.80;67.60;;;;;;5023711;28;21021;-74
2022/06/29 10:48:07;;;;;;;2.07;1.60;;;30.60;67.90;;;;;;4992245;28;20606;-75
2022/06/29 10:50:40;;;;;;;3.20;1.67;;;30.50;69.50;;;;;;4991520;28;21238;-74
2022/06/29 10:53:08;;;;;;;1.70;1.50;;;30.50;67.80;;;;;;4990688;28;20614;-75
2022/06/29 10:55:45;;;;;;;2.00;1.70;;;30.50;70.30;;;;;;5023834;28;20626;-74
2022/06/29 10:58:11;;;;;;;2.63;1.57;;;30.80;69.80;;;;;;4991928;28;20982;-75
2022/06/29 11:00:44;;;;;;;3.17;1.40;;;30.90;69.70;;;;;;4991292;28;20567;-74
2022/06/29 11:03:15;;;;;;;1.93;1.30;;;31.20;68.90;;;;;;4991687;28;21621;-74
2022/06/29 11:13:59;;;;;;;2.30;1.70;;;32.00;64.60;;;;;;4990669;28;20726;-74
2022/06/29 11:16:31;;;;;;;2.87;1.20;;;32.20;66.00;;;;;;5013200;28;20649;-74
2022/06/29 11:18:57;;;;;;;3.17;0.90;;;32.50;65.60;;;;;;4992456;28;20972;-74
2022/06/29 11:21:24;;;;;;;2.07;0.97;;;32.90;64.80;;;;;;4989871;28;21158;-74
2022/06/29 11:24:16;;;;;;;2.10;1.00;;;33.40;65.70;;;;;;4990413;28;20636;-74
2022/06/29 11:26:41;;;;;;;1.80;0.90;;;33.90;65.40;;;;;;4987984;28;20597;-74
2022/06/29 11:29:07;;;;;;;3.50;1.20;;;34.40;62.60;;;;;;4991633;28;20640;-74
2022/06/29 11:31:33;;;;;;;1.60;0.93;;;34.70;58.20;;;;;;4984976;28;20186;-73
2022/06/29 11:34:00;;;;;;;1.70;0.80;;;34.80;57.50;;;;;;5006235;28;20203;-75
2022/06/29 11:36:29;;;;;;;2.30;0.90;;;34.80;55.40;;;;;;5006528;28;20654;-75
2022/06/29 11:39:03;;;;;;;2.10;1.00;;;34.90;53.40;;;;;;4991715;28;21153;-75
2022/06/29 11:44:27;;;;;;;2.50;1.17;;;34.70;51.90;;;;;;4974146;28;20616;-74
2022/06/29 11:46:54;;;;;;;1.70;0.90;;;34.50;51.40;;;;;;5007895;28;20577;-74
2022/06/29 11:49:40;;;;;;;1.90;0.97;;;34.50;53.40;;;;;;4994585;28;20649;-74
2022/06/29 11:52:08;;;;;;;1.97;0.90;;;34.50;51.70;;;;;;4993454;28;20742;-74
2022/06/29 11:54:41;;;;;;;3.90;0.80;;;34.30;51.60;;;;;;5021412;28;20675;-74
2022/06/29 11:57:15;;;;;;;2.37;0.90;;;34.10;50.90;;;;;;4995330;28;21167;-74
2022/06/29 11:59:44;;;;;;;9.13;1.57;;;33.90;50.50;;;;;;5026217;28;21190;-75
2022/06/29 12:02:15;;;;;;;2.30;1.00;;;33.60;49.80;;;;;;5010025;28;20949;-74
2022/06/29 12:04:45;;;;;;;1.97;0.90;;;33.40;50.20;;;;;;5026744;28;20599;-73
2022/06/29 12:07:16;;;;;;;1.57;0.90;;;33.50;50.90;;;;;;4993033;28;20588;-74
2022/06/29 12:09:45;;;;;;;2.17;0.90;;;33.50;49.70;;;;;;4994358;28;20587;-74
2022/06/29 12:12:14;;;;;;;2.10;1.10;;;33.80;51.40;;;;;;4994819;28;21006;-74
2022/06/29 12:14:41;;;;;;;1.50;0.93;;;34.10;51.10;;;;;;4995051;28;20594;-74
2022/06/29 12:17:14;;;;;;;2.17;1.00;;;34.20;50.60;;;;;;4994842;28;20663;-73
2022/06/29 12:19:40;;;;;;;2.17;0.90;;;34.30;50.20;;;;;;4992795;28;20624;-73
2022/06/29 12:22:09;;;;;;;2.17;1.27;;;34.40;48.90;;;;;;4994146;28;20642;-73
2022/06/29 12:24:35;;;;;;;1.50;0.97;;;34.30;48.50;;;;;;4994761;28;20593;-73
2022/06/29 12:27:02;;;;;;;2.30;1.10;;;34.10;47.60;;;;;;4994118;28;20182;-74
2022/06/29 12:29:28;;;;;;;1.90;0.93;;;34.00;47.80;;;;;;4995043;28;20686;-73
2022/06/29 12:31:54;;;;;;;2.27;0.97;;;33.70;46.90;;;;;;4992410;28;20983;-74
2022/06/29 12:34:20;;;;;;;3.30;1.07;;;33.40;47.20;;;;;;4995521;28;20617;-74
2022/06/29 12:36:46;;;;;;;1.50;0.93;;;33.20;47.30;;;;;;4994418;28;20308;-74
2022/06/29 12:39:14;;;;;;;2.17;0.90;;;33.00;47.10;;;;;;4994522;28;20746;-74
2022/06/29 12:41:40;;;;;;;2.47;0.90;;;32.60;47.40;;;;;;4993751;28;20563;-74
2022/06/29 12:44:06;;;;;;;1.80;0.80;;;32.50;48.10;;;;;;4993307;28;20618;-73
2022/06/29 12:46:33;;;;;;;1.90;0.90;;;32.40;48.60;;;;;;4994325;28;20164;-75
2022/06/29 12:49:03;;;;;;;1.67;0.93;;;32.40;48.70;;;;;;4994690;28;20720;-73
2022/06/29 12:51:30;;;;;;;2.60;1.30;;;32.40;48.80;;;;;;5000904;28;20936;-74
2022/06/29 12:53:56;;;;;;;8.60;1.07;;;32.30;48.50;;;;;;4992864;28;20653;-74
2022/06/29 12:56:22;;;;;;;3.60;1.33;;;32.10;48.50;;;;;;4993045;28;20578;-74
2022/06/29 12:58:47;;;;;;;1.70;1.00;;;32.00;48.60;;;;;;4993353;28;20983;-75
2022/06/29 13:01:13;;;;;;;4.47;0.90;;;31.90;49.20;;;;;;5013549;28;20248;-75
2022/06/29 13:03:39;;;;;;;2.00;1.20;;;31.70;48.90;;;;;;5009527;28;20548;-74
2022/06/29 13:06:05;;;;;;;2.77;1.10;;;31.60;48.90;;;;;;4994327;28;20204;-74
2022/06/29 13:08:31;;;;;;;4.70;1.10;;;31.40;48.80;;;;;;5015812;28;20185;-74
2022/06/29 13:10:59;;;;;;;1.50;0.83;;;31.30;49.20;;;;;;4995136;28;20582;-75
2022/06/29 13:13:29;;;;;;;2.20;1.20;;;31.20;49.60;;;;;;4995386;28;20199;-75
2022/06/29 13:15:56;;;;;;;4.17;1.20;;;31.10;49.40;;;;;;5003827;28;20588;-75